sensor_id;sensor_type;location;lat;lon;timestamp;temperature;humidity
43185;DHT22;28803;52.308;19.096;2022-12-07T00:01:28;2.10;99.90
43185;DHT22;28803;52.308;19.096;2022-12-07T00:03:59;3.40;99.90
43185;DHT22;28803;52.308;19.096;2022-12-07T00:06:37;2.10;99.90
43185;DHT22;28803;52.308;19.096;2022-12-07T00:09:08;2.10;99.90
43185;DHT22;28803;52.308;19.096;2022-12-07T00:11:36;2.10;99.90
43185;DHT22;28803;52.308;19.096;2022-12-07T00:14:06;2.00;99.90
43185;DHT22;28803;52.308;19.096;2022-12-07T00:16:34;2.10;99.90
43185;DHT22;28803;52.308;19.096;2022-12-07T00:19:03;2.00;99.90
43185;DHT22;28803;52.308;19.096;2022-12-07T00:21:35;2.00;99.90
43185;DHT22;28803;52.308;19.096;2022-12-07T00:24:04;2.00;99.90
43185;DHT22;28803;52.308;19.096;2022-12-07T00:26:36;2.00;99.90
43185;DHT22;28803;52.308;19.096;2022-12-07T00:29:06;2.00;99.90
43185;DHT22;28803;52.308;19.096;2022-12-07T00:31:36;2.00;99.90
43185;DHT22;28803;52.308;19.096;2022-12-07T00:34:17;2.00;99.90
43185;DHT22;28803;52.308;19.096;2022-12-07T00:36:45;2.00;99.90
43185;DHT22;28803;52.308;19.096;2022-12-07T00:39:12;2.00;99.90
43185;DHT22;28803;52.308;19.096;2022-12-07T00:41:39;2.00;99.90
43185;DHT22;28803;52.308;19.096;2022-12-07T00:44:07;2.00;99.90
43185;DHT22;28803;52.308;19.096;2022-12-07T00:46:34;2.00;99.90
43185;DHT22;28803;52.308;19.096;2022-12-07T00:49:01;2.00;99.90
43185;DHT22;28803;52.308;19.096;2022-12-07T00:51:28;1.90;99.90
43185;DHT22;28803;52.308;19.096;2022-12-07T00:53:55;1.90;99.90
43185;DHT22;28803;52.308;19.096;2022-12-07T00:56:24;2.00;99.90
43185;DHT22;28803;52.308;19.096;2022-12-07T00:58:57;1.90;99.90
43185;DHT22;28803;52.308;19.096;2022-12-07T01:01:26;2.00;99.90
43185;DHT22;28803;52.308;19.096;2022-12-07T01:03:54;1.90;99.90
43185;DHT22;28803;52.308;19.096;2022-12-07T01:06:22;1.90;99.90
43185;DHT22;28803;52.308;19.096;2022-12-07T01:08:50;1.90;99.90
43185;DHT22;28803;52.308;19.096;2022-12-07T01:11:20;1.90;99.90
43185;DHT22;28803;52.308;19.096;2022-12-07T01:13:50;2.00;99.90
43185;DHT22;28803;52.308;19.096;2022-12-07T01:16:18;2.00;99.90
43185;DHT22;28803;52.308;19.096;2022-12-07T01:18:48;2.00;99.90
43185;DHT22;28803;52.308;19.096;2022-12-07T01:21:18;2.00;99.90
43185;DHT22;28803;52.308;19.096;2022-12-07T01:23:45;1.90;99.90
43185;DHT22;28803;52.308;19.096;2022-12-07T01:26:15;1.90;99.90
43185;DHT22;28803;52.308;19.096;2022-12-07T01:28:43;1.90;99.90
43185;DHT22;28803;52.308;19.096;2022-12-07T01:31:16;1.90;99.90
43185;DHT22;28803;52.308;19.096;2022-12-07T01:33:47;1.80;99.90
43185;DHT22;28803;52.308;19.096;2022-12-07T01:36:16;1.80;99.90
43185;DHT22;28803;52.308;19.096;2022-12-07T01:38:44;1.70;99.90
43185;DHT22;28803;52.308;19.096;2022-12-07T01:41:13;1.70;99.90
43185;DHT22;28803;52.308;19.096;2022-12-07T01:46:35;1.60;99.90
43185;DHT22;28803;52.308;19.096;2022-12-07T01:49:06;1.60;99.90
43185;DHT22;28803;52.308;19.096;2022-12-07T01:51:37;1.60;99.90
43185;DHT22;28803;52.308;19.096;2022-12-07T01:54:08;1.60;99.90
43185;DHT22;28803;52.308;19.096;2022-12-07T01:56:37;1.60;99.90
43185;DHT22;28803;52.308;19.096;2022-12-07T01:59:05;1.60;99.90
43185;DHT22;28803;52.308;19.096;2022-12-07T02:01:32;1.60;99.90
43185;DHT22;28803;52.308;19.096;2022-12-07T02:04:00;1.60;99.90
43185;DHT22;28803;52.308;19.096;2022-12-07T02:06:28;1.60;99.90
43185;DHT22;28803;52.308;19.096;2022-12-07T02:08:56;1.60;99.90
43185;DHT22;28803;52.308;19.096;2022-12-07T02:11:23;1.60;99.90
43185;DHT22;28803;52.308;19.096;2022-12-07T02:13:50;1.60;99.90
43185;DHT22;28803;52.308;19.096;2022-12-07T02:24:54;1.60;99.90
43185;DHT22;28803;52.308;19.096;2022-12-07T02:27:38;1.60;99.90
43185;DHT22;28803;52.308;19.096;2022-12-07T02:38:27;1.60;99.90
43185;DHT22;28803;52.308;19.096;2022-12-07T02:41:32;1.60;99.90
43185;DHT22;28803;52.308;19.096;2022-12-07T02:44:12;1.60;99.90
43185;DHT22;28803;52.308;19.096;2022-12-07T02:46:42;1.60;99.90
43185;DHT22;28803;52.308;19.096;2022-12-07T02:49:11;1.60;99.90
43185;DHT22;28803;52.308;19.096;2022-12-07T02:51:41;1.70;99.90
43185;DHT22;28803;52.308;19.096;2022-12-07T02:54:17;1.60;99.90
43185;DHT22;28803;52.308;19.096;2022-12-07T03:02:17;1.60;99.90
43185;DHT22;28803;52.308;19.096;2022-12-07T03:12:37;1.50;99.90
43185;DHT22;28803;52.308;19.096;2022-12-07T03:15:26;1.50;99.90
43185;DHT22;28803;52.308;19.096;2022-12-07T03:17:56;1.50;99.90
43185;DHT22;28803;52.308;19.096;2022-12-07T03:20:25;1.50;99.90
43185;DHT22;28803;52.308;19.096;2022-12-07T03:22:53;1.50;99.90
43185;DHT22;28803;52.308;19.096;2022-12-07T03:25:22;1.50;99.90
43185;DHT22;28803;52.308;19.096;2022-12-07T03:28:04;1.50;99.90
43185;DHT22;28803;52.308;19.096;2022-12-07T03:30:40;1.40;99.90
43185;DHT22;28803;52.308;19.096;2022-12-07T03:33:40;1.40;99.90
43185;DHT22;28803;52.308;19.096;2022-12-07T03:36:08;1.40;99.90
43185;DHT22;28803;52.308;19.096;2022-12-07T03:38:45;1.40;99.90
43185;DHT22;28803;52.308;19.096;2022-12-07T03:41:23;1.30;99.90
43185;DHT22;28803;52.308;19.096;2022-12-07T03:43:53;1.30;99.90
43185;DHT22;28803;52.308;19.096;2022-12-07T03:46:27;1.30;99.90
43185;DHT22;28803;52.308;19.096;2022-12-07T03:49:14;1.30;99.90
43185;DHT22;28803;52.308;19.096;2022-12-07T03:52:08;1.20;99.90
43185;DHT22;28803;52.308;19.096;2022-12-07T03:54:43;1.20;99.90
43185;DHT22;28803;52.308;19.096;2022-12-07T03:57:11;1.20;99.90
43185;DHT22;28803;52.308;19.096;2022-12-07T03:59:39;1.20;99.90
43185;DHT22;28803;52.308;19.096;2022-12-07T04:02:07;1.20;99.90
43185;DHT22;28803;52.308;19.096;2022-12-07T04:04:34;1.20;99.90
43185;DHT22;28803;52.308;19.096;2022-12-07T04:07:02;1.20;99.90
43185;DHT22;28803;52.308;19.096;2022-12-07T04:09:30;1.20;99.90
43185;DHT22;28803;52.308;19.096;2022-12-07T04:11:57;1.20;99.90
43185;DHT22;28803;52.308;19.096;2022-12-07T04:14:24;1.20;99.90
43185;DHT22;28803;52.308;19.096;2022-12-07T04:16:54;1.10;99.90
43185;DHT22;28803;52.308;19.096;2022-12-07T04:19:26;1.10;99.90
43185;DHT22;28803;52.308;19.096;2022-12-07T04:21:54;1.10;99.90
43185;DHT22;28803;52.308;19.096;2022-12-07T04:24:21;1.00;99.90
43185;DHT22;28803;52.308;19.096;2022-12-07T04:26:48;1.00;99.90
43185;DHT22;28803;52.308;19.096;2022-12-07T04:29:17;1.00;99.90
43185;DHT22;28803;52.308;19.096;2022-12-07T04:31:45;1.00;99.90
43185;DHT22;28803;52.308;19.096;2022-12-07T04:34:13;1.10;99.90
43185;DHT22;28803;52.308;19.096;2022-12-07T04:36:40;1.10;99.90
43185;DHT22;28803;52.308;19.096;2022-12-07T04:39:17;1.10;99.90
43185;DHT22;28803;52.308;19.096;2022-12-07T04:41:45;1.10;99.90
43185;DHT22;28803;52.308;19.096;2022-12-07T04:44:13;1.20;99.90
43185;DHT22;28803;52.308;19.096;2022-12-07T04:46:41;1.20;99.90
43185;DHT22;28803;52.308;19.096;2022-12-07T04:49:09;1.20;99.90
43185;DHT22;28803;52.308;19.096;2022-12-07T04:51:36;1.20;99.90
43185;DHT22;28803;52.308;19.096;2022-12-07T04:54:04;1.30;99.90
43185;DHT22;28803;52.308;19.096;2022-12-07T04:56:32;1.30;99.90
43185;DHT22;28803;52.308;19.096;2022-12-07T04:58:59;1.30;99.90
43185;DHT22;28803;52.308;19.096;2022-12-07T05:01:26;1.40;99.90
43185;DHT22;28803;52.308;19.096;2022-12-07T05:03:53;1.40;99.90
43185;DHT22;28803;52.308;19.096;2022-12-07T05:06:20;1.40;99.90
43185;DHT22;28803;52.308;19.096;2022-12-07T05:08:48;1.40;99.90
43185;DHT22;28803;52.308;19.096;2022-12-07T05:11:15;1.50;99.90
43185;DHT22;28803;52.308;19.096;2022-12-07T05:14:19;1.50;99.90
43185;DHT22;28803;52.308;19.096;2022-12-07T05:16:49;1.50;99.90
43185;DHT22;28803;52.308;19.096;2022-12-07T05:19:18;1.60;99.90
43185;DHT22;28803;52.308;19.096;2022-12-07T05:21:45;1.60;99.90
43185;DHT22;28803;52.308;19.096;2022-12-07T05:24:15;1.60;99.90
43185;DHT22;28803;52.308;19.096;2022-12-07T05:26:43;1.60;99.90
43185;DHT22;28803;52.308;19.096;2022-12-07T05:29:15;1.70;99.90
43185;DHT22;28803;52.308;19.096;2022-12-07T05:31:43;1.70;99.90
43185;DHT22;28803;52.308;19.096;2022-12-07T05:34:11;1.70;99.90
43185;DHT22;28803;52.308;19.096;2022-12-07T05:36:38;1.70;99.90
43185;DHT22;28803;52.308;19.096;2022-12-07T05:39:05;1.80;99.90
43185;DHT22;28803;52.308;19.096;2022-12-07T05:41:33;1.70;99.90
43185;DHT22;28803;52.308;19.096;2022-12-07T05:44:18;1.70;99.90
43185;DHT22;28803;52.308;19.096;2022-12-07T05:46:46;1.70;99.90
43185;DHT22;28803;52.308;19.096;2022-12-07T05:49:13;1.80;99.90
43185;DHT22;28803;52.308;19.096;2022-12-07T05:51:40;1.80;99.90
43185;DHT22;28803;52.308;19.096;2022-12-07T05:54:07;1.80;99.90
43185;DHT22;28803;52.308;19.096;2022-12-07T05:56:34;1.80;99.90
43185;DHT22;28803;52.308;19.096;2022-12-07T05:59:01;1.80;99.90
43185;DHT22;28803;52.308;19.096;2022-12-07T06:01:47;1.80;99.90
43185;DHT22;28803;52.308;19.096;2022-12-07T06:04:15;1.80;99.90
43185;DHT22;28803;52.308;19.096;2022-12-07T06:06:43;1.80;99.90
43185;DHT22;28803;52.308;19.096;2022-12-07T06:09:10;1.80;99.90
43185;DHT22;28803;52.308;19.096;2022-12-07T06:11:38;1.80;99.90
43185;DHT22;28803;52.308;19.096;2022-12-07T06:14:24;1.70;99.90
43185;DHT22;28803;52.308;19.096;2022-12-07T06:16:51;1.70;99.90
43185;DHT22;28803;52.308;19.096;2022-12-07T06:19:18;1.70;99.90
43185;DHT22;28803;52.308;19.096;2022-12-07T06:21:45;1.70;99.90
43185;DHT22;28803;52.308;19.096;2022-12-07T06:24:13;1.60;99.90
43185;DHT22;28803;52.308;19.096;2022-12-07T06:26:41;1.60;99.90
43185;DHT22;28803;52.308;19.096;2022-12-07T06:29:09;1.60;99.90
43185;DHT22;28803;52.308;19.096;2022-12-07T06:31:37;1.50;99.90
43185;DHT22;28803;52.308;19.096;2022-12-07T06:34:08;1.50;99.90
43185;DHT22;28803;52.308;19.096;2022-12-07T06:36:36;1.50;99.90
43185;DHT22;28803;52.308;19.096;2022-12-07T06:39:03;1.50;99.90
43185;DHT22;28803;52.308;19.096;2022-12-07T06:41:31;1.50;99.90
43185;DHT22;28803;52.308;19.096;2022-12-07T06:43:58;1.40;99.90
43185;DHT22;28803;52.308;19.096;2022-12-07T06:46:26;1.40;99.90
43185;DHT22;28803;52.308;19.096;2022-12-07T06:48:53;1.40;99.90
43185;DHT22;28803;52.308;19.096;2022-12-07T06:51:20;1.40;99.90
43185;DHT22;28803;52.308;19.096;2022-12-07T06:53:47;1.40;99.90
43185;DHT22;28803;52.308;19.096;2022-12-07T06:56:15;1.40;99.90
43185;DHT22;28803;52.308;19.096;2022-12-07T06:58:42;1.40;99.90
43185;DHT22;28803;52.308;19.096;2022-12-07T07:01:13;1.40;99.90
43185;DHT22;28803;52.308;19.096;2022-12-07T07:03:41;1.40;99.90
43185;DHT22;28803;52.308;19.096;2022-12-07T07:06:09;2.50;99.90
43185;DHT22;28803;52.308;19.096;2022-12-07T07:08:37;1.40;99.90
43185;DHT22;28803;52.308;19.096;2022-12-07T07:11:06;1.40;99.90
43185;DHT22;28803;52.308;19.096;2022-12-07T07:13:33;1.40;99.90
43185;DHT22;28803;52.308;19.096;2022-12-07T07:16:01;1.50;99.90
43185;DHT22;28803;52.308;19.096;2022-12-07T07:18:27;1.40;99.90
43185;DHT22;28803;52.308;19.096;2022-12-07T07:20:55;1.40;99.90
43185;DHT22;28803;52.308;19.096;2022-12-07T07:23:23;1.40;99.90
43185;DHT22;28803;52.308;19.096;2022-12-07T07:25:50;1.30;99.90
43185;DHT22;28803;52.308;19.096;2022-12-07T07:28:17;1.30;99.90
43185;DHT22;28803;52.308;19.096;2022-12-07T07:30:45;1.40;99.90
43185;DHT22;28803;52.308;19.096;2022-12-07T07:33:12;1.40;99.90
43185;DHT22;28803;52.308;19.096;2022-12-07T07:35:40;1.50;99.90
43185;DHT22;28803;52.308;19.096;2022-12-07T07:38:08;1.50;99.90
43185;DHT22;28803;52.308;19.096;2022-12-07T07:40:35;-1.30;99.90
43185;DHT22;28803;52.308;19.096;2022-12-07T07:43:03;1.60;99.90
43185;DHT22;28803;52.308;19.096;2022-12-07T07:45:33;1.60;99.90
43185;DHT22;28803;52.308;19.096;2022-12-07T07:48:00;1.60;99.90
43185;DHT22;28803;52.308;19.096;2022-12-07T07:50:27;1.60;99.90
43185;DHT22;28803;52.308;19.096;2022-12-07T07:52:55;1.60;99.90
43185;DHT22;28803;52.308;19.096;2022-12-07T07:55:23;1.60;99.90
43185;DHT22;28803;52.308;19.096;2022-12-07T07:57:50;1.60;99.90
43185;DHT22;28803;52.308;19.096;2022-12-07T08:00:21;1.60;99.90
43185;DHT22;28803;52.308;19.096;2022-12-07T08:02:48;1.60;99.90
43185;DHT22;28803;52.308;19.096;2022-12-07T08:05:16;1.60;99.90
43185;DHT22;28803;52.308;19.096;2022-12-07T08:07:43;1.70;99.90
43185;DHT22;28803;52.308;19.096;2022-12-07T08:10:13;1.70;99.90
43185;DHT22;28803;52.308;19.096;2022-12-07T08:12:42;1.70;99.90
43185;DHT22;28803;52.308;19.096;2022-12-07T08:15:29;1.70;99.90
43185;DHT22;28803;52.308;19.096;2022-12-07T08:17:57;1.70;99.90
43185;DHT22;28803;52.308;19.096;2022-12-07T08:20:25;1.80;99.90
43185;DHT22;28803;52.308;19.096;2022-12-07T08:22:52;1.90;99.90
43185;DHT22;28803;52.308;19.096;2022-12-07T08:25:19;1.80;99.90
43185;DHT22;28803;52.308;19.096;2022-12-07T08:27:47;1.90;99.90
43185;DHT22;28803;52.308;19.096;2022-12-07T08:30:14;1.80;99.90
43185;DHT22;28803;52.308;19.096;2022-12-07T08:32:42;1.90;99.90
43185;DHT22;28803;52.308;19.096;2022-12-07T08:35:10;1.90;99.90
43185;DHT22;28803;52.308;19.096;2022-12-07T08:37:37;1.90;99.90
43185;DHT22;28803;52.308;19.096;2022-12-07T08:40:06;2.00;99.90
43185;DHT22;28803;52.308;19.096;2022-12-07T08:42:34;2.20;99.90
43185;DHT22;28803;52.308;19.096;2022-12-07T08:45:10;2.20;99.90
43185;DHT22;28803;52.308;19.096;2022-12-07T08:47:45;3.50;99.90
43185;DHT22;28803;52.308;19.096;2022-12-07T08:50:13;2.50;99.90
43185;DHT22;28803;52.308;19.096;2022-12-07T08:52:41;2.50;99.90
43185;DHT22;28803;52.308;19.096;2022-12-07T08:55:11;2.50;99.90
43185;DHT22;28803;52.308;19.096;2022-12-07T08:57:40;2.50;99.90
43185;DHT22;28803;52.308;19.096;2022-12-07T09:00:08;2.50;99.90
43185;DHT22;28803;52.308;19.096;2022-12-07T09:02:36;2.50;99.90
43185;DHT22;28803;52.308;19.096;2022-12-07T09:05:03;2.50;99.90
43185;DHT22;28803;52.308;19.096;2022-12-07T09:07:32;2.50;99.90
43185;DHT22;28803;52.308;19.096;2022-12-07T09:10:00;2.50;99.90
43185;DHT22;28803;52.308;19.096;2022-12-07T09:12:28;2.60;99.90
43185;DHT22;28803;52.308;19.096;2022-12-07T09:14:55;2.60;99.90
43185;DHT22;28803;52.308;19.096;2022-12-07T09:17:23;2.70;99.90
43185;DHT22;28803;52.308;19.096;2022-12-07T09:19:50;2.70;99.90
43185;DHT22;28803;52.308;19.096;2022-12-07T09:22:17;2.70;99.90
43185;DHT22;28803;52.308;19.096;2022-12-07T09:24:45;2.70;99.90
43185;DHT22;28803;52.308;19.096;2022-12-07T09:27:12;2.70;99.90
43185;DHT22;28803;52.308;19.096;2022-12-07T09:29:40;2.70;99.90
43185;DHT22;28803;52.308;19.096;2022-12-07T09:32:07;2.80;99.90
43185;DHT22;28803;52.308;19.096;2022-12-07T09:34:37;2.80;99.90
43185;DHT22;28803;52.308;19.096;2022-12-07T09:37:05;2.70;99.90
43185;DHT22;28803;52.308;19.096;2022-12-07T09:39:33;2.80;99.90
43185;DHT22;28803;52.308;19.096;2022-12-07T09:42:03;2.70;99.90
43185;DHT22;28803;52.308;19.096;2022-12-07T09:44:31;2.70;99.90
43185;DHT22;28803;52.308;19.096;2022-12-07T09:46:58;2.70;99.90
43185;DHT22;28803;52.308;19.096;2022-12-07T09:49:30;2.70;99.90
43185;DHT22;28803;52.308;19.096;2022-12-07T09:54:37;2.60;99.90
43185;DHT22;28803;52.308;19.096;2022-12-07T09:57:05;2.60;99.90
43185;DHT22;28803;52.308;19.096;2022-12-07T09:59:32;2.50;99.90
43185;DHT22;28803;52.308;19.096;2022-12-07T10:02:24;2.50;99.90
43185;DHT22;28803;52.308;19.096;2022-12-07T10:04:51;2.40;99.90
43185;DHT22;28803;52.308;19.096;2022-12-07T10:07:18;2.30;99.90
43185;DHT22;28803;52.308;19.096;2022-12-07T10:09:46;2.30;99.90
43185;DHT22;28803;52.308;19.096;2022-12-07T10:12:13;2.30;99.90
43185;DHT22;28803;52.308;19.096;2022-12-07T10:14:55;2.20;99.90
43185;DHT22;28803;52.308;19.096;2022-12-07T10:17:40;2.20;99.90
43185;DHT22;28803;52.308;19.096;2022-12-07T10:22:38;2.20;99.90
43185;DHT22;28803;52.308;19.096;2022-12-07T10:25:18;2.20;99.90
43185;DHT22;28803;52.308;19.096;2022-12-07T10:28:16;2.30;99.90
43185;DHT22;28803;52.308;19.096;2022-12-07T10:33:29;2.40;99.90
43185;DHT22;28803;52.308;19.096;2022-12-07T10:35:57;2.40;99.90
43185;DHT22;28803;52.308;19.096;2022-12-07T10:38:26;2.40;99.90
43185;DHT22;28803;52.308;19.096;2022-12-07T10:41:07;2.40;99.90
43185;DHT22;28803;52.308;19.096;2022-12-07T10:43:34;2.30;99.90
43185;DHT22;28803;52.308;19.096;2022-12-07T10:49:27;2.30;99.90
43185;DHT22;28803;52.308;19.096;2022-12-07T10:54:47;2.30;99.90
43185;DHT22;28803;52.308;19.096;2022-12-07T10:57:31;2.30;99.90
43185;DHT22;28803;52.308;19.096;2022-12-07T11:05:30;2.30;99.90
43185;DHT22;28803;52.308;19.096;2022-12-07T11:17:13;2.20;99.90
43185;DHT22;28803;52.308;19.096;2022-12-07T11:22:51;2.20;99.90
43185;DHT22;28803;52.308;19.096;2022-12-07T11:28:22;2.10;99.90
43185;DHT22;28803;52.308;19.096;2022-12-07T11:31:01;2.10;99.90
43185;DHT22;28803;52.308;19.096;2022-12-07T11:33:40;2.10;99.90
43185;DHT22;28803;52.308;19.096;2022-12-07T11:36:39;2.00;99.90
43185;DHT22;28803;52.308;19.096;2022-12-07T11:42:10;2.10;99.90
43185;DHT22;28803;52.308;19.096;2022-12-07T11:47:34;2.10;99.90
43185;DHT22;28803;52.308;19.096;2022-12-07T11:50:41;2.10;99.90
43185;DHT22;28803;52.308;19.096;2022-12-07T11:53:30;2.10;99.90
43185;DHT22;28803;52.308;19.096;2022-12-07T11:56:17;2.00;99.90
43185;DHT22;28803;52.308;19.096;2022-12-07T11:59:08;2.00;99.90
43185;DHT22;28803;52.308;19.096;2022-12-07T12:01:52;1.90;99.90
43185;DHT22;28803;52.308;19.096;2022-12-07T12:04:27;1.90;99.90
43185;DHT22;28803;52.308;19.096;2022-12-07T12:06:55;1.90;99.90
43185;DHT22;28803;52.308;19.096;2022-12-07T12:09:45;1.80;99.90
43185;DHT22;28803;52.308;19.096;2022-12-07T12:12:22;1.90;99.90
43185;DHT22;28803;52.308;19.096;2022-12-07T12:21:10;1.80;99.90
43185;DHT22;28803;52.308;19.096;2022-12-07T12:23:42;1.90;99.90
43185;DHT22;28803;52.308;19.096;2022-12-07T12:26:20;1.80;99.90
43185;DHT22;28803;52.308;19.096;2022-12-07T12:29:00;1.80;99.90
43185;DHT22;28803;52.308;19.096;2022-12-07T12:31:38;1.80;99.90
43185;DHT22;28803;52.308;19.096;2022-12-07T12:35:20;1.80;99.90
43185;DHT22;28803;52.308;19.096;2022-12-07T12:42:55;1.70;99.90
43185;DHT22;28803;52.308;19.096;2022-12-07T12:45:28;1.70;99.90
43185;DHT22;28803;52.308;19.096;2022-12-07T12:50:35;1.60;99.90
43185;DHT22;28803;52.308;19.096;2022-12-07T13:01:30;1.70;99.90
43185;DHT22;28803;52.308;19.096;2022-12-07T13:03:36;1.70;99.90
43185;DHT22;28803;52.308;19.096;2022-12-07T13:08:45;1.60;99.90
43185;DHT22;28803;52.308;19.096;2022-12-07T13:11:36;1.60;99.90
43185;DHT22;28803;52.308;19.096;2022-12-07T13:14:37;1.60;99.90
43185;DHT22;28803;52.308;19.096;2022-12-07T13:20:03;1.50;99.90
43185;DHT22;28803;52.308;19.096;2022-12-07T13:27:40;1.50;99.90
43185;DHT22;28803;52.308;19.096;2022-12-07T13:30:17;1.50;99.90
43185;DHT22;28803;52.308;19.096;2022-12-07T13:32:52;1.50;99.90
43185;DHT22;28803;52.308;19.096;2022-12-07T13:35:35;1.50;99.90
43185;DHT22;28803;52.308;19.096;2022-12-07T13:38:05;1.50;99.90
43185;DHT22;28803;52.308;19.096;2022-12-07T13:40:32;1.50;99.90
43185;DHT22;28803;52.308;19.096;2022-12-07T13:43:02;1.40;99.90
43185;DHT22;28803;52.308;19.096;2022-12-07T13:45:33;1.50;99.90
43185;DHT22;28803;52.308;19.096;2022-12-07T13:48:32;1.50;99.90
43185;DHT22;28803;52.308;19.096;2022-12-07T13:51:02;1.50;99.90
43185;DHT22;28803;52.308;19.096;2022-12-07T13:53:30;1.50;99.90
43185;DHT22;28803;52.308;19.096;2022-12-07T13:55:58;1.50;99.90
43185;DHT22;28803;52.308;19.096;2022-12-07T13:58:29;1.50;99.90
43185;DHT22;28803;52.308;19.096;2022-12-07T14:00:57;1.40;99.90
43185;DHT22;28803;52.308;19.096;2022-12-07T14:03:33;1.40;99.90
43185;DHT22;28803;52.308;19.096;2022-12-07T14:08:41;1.40;99.90
43185;DHT22;28803;52.308;19.096;2022-12-07T14:11:17;1.40;99.90
43185;DHT22;28803;52.308;19.096;2022-12-07T14:14:00;1.50;99.90
43185;DHT22;28803;52.308;19.096;2022-12-07T14:16:34;1.50;99.90
43185;DHT22;28803;52.308;19.096;2022-12-07T14:22:25;1.40;99.90
43185;DHT22;28803;52.308;19.096;2022-12-07T14:25:21;1.40;99.90
43185;DHT22;28803;52.308;19.096;2022-12-07T14:30:30;1.50;99.90
43185;DHT22;28803;52.308;19.096;2022-12-07T14:33:02;1.50;99.90
43185;DHT22;28803;52.308;19.096;2022-12-07T14:35:31;1.50;99.90
43185;DHT22;28803;52.308;19.096;2022-12-07T14:37:58;1.50;99.90
43185;DHT22;28803;52.308;19.096;2022-12-07T14:40:27;1.50;99.90
43185;DHT22;28803;52.308;19.096;2022-12-07T14:43:05;1.50;99.90
43185;DHT22;28803;52.308;19.096;2022-12-07T14:45:33;1.50;99.90
43185;DHT22;28803;52.308;19.096;2022-12-07T14:48:00;1.60;99.90
43185;DHT22;28803;52.308;19.096;2022-12-07T14:50:52;1.60;99.90
43185;DHT22;28803;52.308;19.096;2022-12-07T14:53:48;1.60;99.90
43185;DHT22;28803;52.308;19.096;2022-12-07T14:56:23;1.60;99.90
43185;DHT22;28803;52.308;19.096;2022-12-07T14:58:51;1.70;99.90
43185;DHT22;28803;52.308;19.096;2022-12-07T15:01:18;1.60;99.90
43185;DHT22;28803;52.308;19.096;2022-12-07T15:03:45;1.60;99.90
43185;DHT22;28803;52.308;19.096;2022-12-07T15:06:17;1.60;99.90
43185;DHT22;28803;52.308;19.096;2022-12-07T15:08:44;1.50;99.90
43185;DHT22;28803;52.308;19.096;2022-12-07T15:11:15;1.60;99.90
43185;DHT22;28803;52.308;19.096;2022-12-07T15:13:43;1.50;99.90
43185;DHT22;28803;52.308;19.096;2022-12-07T15:16:29;1.50;99.90
43185;DHT22;28803;52.308;19.096;2022-12-07T15:19:19;1.50;99.90
43185;DHT22;28803;52.308;19.096;2022-12-07T15:21:57;1.50;99.90
43185;DHT22;28803;52.308;19.096;2022-12-07T15:24:26;1.50;99.90
43185;DHT22;28803;52.308;19.096;2022-12-07T15:26:53;1.60;99.90
43185;DHT22;28803;52.308;19.096;2022-12-07T15:29:21;1.60;99.90
43185;DHT22;28803;52.308;19.096;2022-12-07T15:31:50;1.50;99.90
43185;DHT22;28803;52.308;19.096;2022-12-07T15:34:25;1.50;99.90
43185;DHT22;28803;52.308;19.096;2022-12-07T15:36:52;1.40;99.90
43185;DHT22;28803;52.308;19.096;2022-12-07T15:39:19;1.50;99.90
43185;DHT22;28803;52.308;19.096;2022-12-07T15:41:46;1.50;99.90
43185;DHT22;28803;52.308;19.096;2022-12-07T15:44:14;1.50;99.90
43185;DHT22;28803;52.308;19.096;2022-12-07T15:47:00;1.50;99.90
43185;DHT22;28803;52.308;19.096;2022-12-07T15:49:28;1.60;99.90
43185;DHT22;28803;52.308;19.096;2022-12-07T15:51:55;1.60;99.90
43185;DHT22;28803;52.308;19.096;2022-12-07T15:54:24;1.50;99.90
43185;DHT22;28803;52.308;19.096;2022-12-07T15:56:52;1.30;99.90
43185;DHT22;28803;52.308;19.096;2022-12-07T15:59:19;1.20;99.90
43185;DHT22;28803;52.308;19.096;2022-12-07T16:01:46;1.00;99.90
43185;DHT22;28803;52.308;19.096;2022-12-07T16:04:13;0.90;99.90
43185;DHT22;28803;52.308;19.096;2022-12-07T16:06:41;0.80;99.90
43185;DHT22;28803;52.308;19.096;2022-12-07T16:09:08;0.70;99.90
43185;DHT22;28803;52.308;19.096;2022-12-07T16:11:35;0.70;99.90
43185;DHT22;28803;52.308;19.096;2022-12-07T16:14:02;0.70;99.90
43185;DHT22;28803;52.308;19.096;2022-12-07T16:16:29;0.70;99.90
43185;DHT22;28803;52.308;19.096;2022-12-07T16:18:58;0.70;99.90
43185;DHT22;28803;52.308;19.096;2022-12-07T16:21:25;0.70;99.90
43185;DHT22;28803;52.308;19.096;2022-12-07T16:23:52;0.80;99.90
43185;DHT22;28803;52.308;19.096;2022-12-07T16:26:21;0.80;99.90
43185;DHT22;28803;52.308;19.096;2022-12-07T16:28:50;0.80;99.90
43185;DHT22;28803;52.308;19.096;2022-12-07T16:31:20;0.80;99.90
43185;DHT22;28803;52.308;19.096;2022-12-07T16:33:48;0.90;99.90
43185;DHT22;28803;52.308;19.096;2022-12-07T16:36:17;0.90;99.90
43185;DHT22;28803;52.308;19.096;2022-12-07T16:39:05;0.90;99.90
43185;DHT22;28803;52.308;19.096;2022-12-07T16:41:32;0.90;99.90
43185;DHT22;28803;52.308;19.096;2022-12-07T16:44:07;0.90;99.90
43185;DHT22;28803;52.308;19.096;2022-12-07T16:46:36;1.00;99.90
43185;DHT22;28803;52.308;19.096;2022-12-07T16:49:04;1.00;99.90
43185;DHT22;28803;52.308;19.096;2022-12-07T16:51:31;1.00;99.90
43185;DHT22;28803;52.308;19.096;2022-12-07T16:54:01;1.00;99.90
43185;DHT22;28803;52.308;19.096;2022-12-07T16:56:28;1.00;99.90
43185;DHT22;28803;52.308;19.096;2022-12-07T16:58:58;0.90;99.90
43185;DHT22;28803;52.308;19.096;2022-12-07T17:01:25;0.80;99.90
43185;DHT22;28803;52.308;19.096;2022-12-07T17:03:57;0.80;99.90
43185;DHT22;28803;52.308;19.096;2022-12-07T17:06:27;0.70;99.90
43185;DHT22;28803;52.308;19.096;2022-12-07T17:08:56;0.70;99.90
43185;DHT22;28803;52.308;19.096;2022-12-07T17:11:26;0.70;99.90
43185;DHT22;28803;52.308;19.096;2022-12-07T17:13:54;0.70;99.90
43185;DHT22;28803;52.308;19.096;2022-12-07T17:16:40;0.70;99.90
43185;DHT22;28803;52.308;19.096;2022-12-07T17:19:09;0.70;99.90
43185;DHT22;28803;52.308;19.096;2022-12-07T17:21:36;0.70;99.90
43185;DHT22;28803;52.308;19.096;2022-12-07T17:24:06;0.70;99.90
43185;DHT22;28803;52.308;19.096;2022-12-07T17:26:34;0.80;99.90
43185;DHT22;28803;52.308;19.096;2022-12-07T17:29:04;0.80;99.90
43185;DHT22;28803;52.308;19.096;2022-12-07T17:31:31;0.80;99.90
43185;DHT22;28803;52.308;19.096;2022-12-07T17:33:59;0.80;99.90
43185;DHT22;28803;52.308;19.096;2022-12-07T17:36:28;0.80;99.90
43185;DHT22;28803;52.308;19.096;2022-12-07T17:38:56;0.70;99.90
43185;DHT22;28803;52.308;19.096;2022-12-07T17:41:26;0.70;99.90
43185;DHT22;28803;52.308;19.096;2022-12-07T17:44:17;0.70;99.90
43185;DHT22;28803;52.308;19.096;2022-12-07T17:46:46;0.70;99.90
43185;DHT22;28803;52.308;19.096;2022-12-07T17:49:14;0.70;99.90
43185;DHT22;28803;52.308;19.096;2022-12-07T17:51:42;0.60;99.90